Time;durP1;ratioP1;P1;durP2;ratioP2;P2;SDS_P1;SDS_P2;PMS_P1;PMS_P2;Temp;Humidity;BMP_temperature;BMP_pressure;BME280_temperature;BME280_humidity;BME280_pressure;Samples;Min_cycle;Max_cycle;Signal;HPM_P1;HPM_P2
2021/08/09 00:01:41;;;;;;;5.40;1.92;;;;;;;17.17;92.80;99223.00;4087816;84;21081;-82
2021/08/09 00:07:43;;;;;;;4.40;2.20;;;;;;;17.03;92.31;99204.39;4105504;84;21145;-84
2021/08/09 00:13:44;;;;;;;4.58;1.98;;;;;;;16.97;92.54;99213.75;4192022;83;20998;-82
2021/08/09 00:19:45;;;;;;;4.25;1.62;;;;;;;17.00;92.44;99204.62;4110365;85;21047;-83
2021/08/09 00:25:47;;;;;;;5.12;2.00;;;;;;;16.98;92.35;99207.59;4180535;83;21031;-82
2021/08/09 00:31:50;;;;;;;4.05;2.12;;;;;;;17.08;92.88;99221.92;4182652;83;21095;-82
2021/08/09 00:37:52;;;;;;;3.40;1.77;;;;;;;17.00;92.67;99217.66;4164937;83;21039;-82
2021/08/09 00:43:53;;;;;;;5.80;2.12;;;;;;;17.00;92.82;99235.05;4168105;83;21093;-82
2021/08/09 00:49:54;;;;;;;6.55;1.82;;;;;;;17.03;93.44;99261.08;4121576;84;21015;-81
2021/08/09 00:55:57;;;;;;;3.98;1.72;;;;;;;17.12;93.23;99256.64;4178230;83;21005;-82
2021/08/09 01:01:59;;;;;;;3.47;1.60;;;;;;;17.07;93.26;99246.02;4171175;83;21071;-82
2021/08/09 01:08:18;;;;;;;3.80;2.17;;;;;;;17.09;93.83;99231.77;4167879;83;21045;-81
2021/08/09 01:14:43;;;;;;;6.12;2.00;;;;;;;17.08;93.65;99230.22;4201311;82;21561;-82
2021/08/09 01:20:56;;;;;;;8.70;2.55;;;;;;;17.13;94.07;99254.66;4180609;83;21064;-82
2021/08/09 01:27:20;;;;;;;2.85;2.00;;;;;;;17.17;93.96;99245.72;4187208;83;21635;-81
2021/08/09 01:33:24;;;;;;;3.98;1.87;;;;;;;16.98;93.36;99244.93;4190553;83;21697;-82
2021/08/09 01:39:26;;;;;;;5.17;1.70;;;;;;;16.72;93.43;99247.78;4206133;82;21078;-82
2021/08/09 01:45:29;;;;;;;2.30;1.65;;;;;;;16.66;93.56;99252.77;4081428;84;21150;-81
2021/08/09 01:51:33;;;;;;;4.60;1.37;;;;;;;16.51;93.29;99266.51;4182631;83;21136;-82
2021/08/09 01:57:37;;;;;;;3.98;1.10;;;;;;;16.35;93.60;99270.37;4191045;83;21515;-81
2021/08/09 02:03:39;;;;;;;2.25;1.10;;;;;;;16.35;93.54;99257.33;4176002;83;21045;-82
2021/08/09 02:09:41;;;;;;;4.87;1.30;;;;;;;16.20;94.04;99257.27;4190675;83;21051;-81
2021/08/09 02:15:54;;;;;;;3.00;1.27;;;;;;;16.15;93.70;99270.70;4175996;83;21085;-81
2021/08/09 02:22:20;;;;;;;3.08;1.25;;;;;;;16.05;93.61;99275.71;4146434;83;21082;-82
2021/08/09 02:28:25;;;;;;;3.15;1.22;;;;;;;15.87;93.83;99290.20;4162997;83;21055;-81
2021/08/09 02:34:32;;;;;;;9.13;1.62;;;;;;;15.87;94.86;99320.56;4183366;83;21053;-81
2021/08/09 02:40:35;;;;;;;2.15;1.20;;;;;;;15.82;94.24;99327.30;4181191;82;21596;-83
2021/08/09 02:46:40;;;;;;;15.05;2.10;;;;;;;15.86;94.90;99334.19;4194502;82;21548;-82
2021/08/09 02:52:43;;;;;;;2.05;1.35;;;;;;;16.00;95.20;99345.16;4169689;83;21045;-82
2021/08/09 02:58:44;;;;;;;5.33;2.10;;;;;;;16.02;94.79;99354.61;4187930;83;21584;-82
2021/08/09 03:04:46;;;;;;;2.72;1.77;;;;;;;15.86;94.08;99370.08;4181176;83;21000;-81
2021/08/09 03:10:49;;;;;;;3.30;1.37;;;;;;;15.55;93.91;99379.44;4197330;83;20978;-82
2021/08/09 03:16:52;;;;;;;2.55;1.50;;;;;;;15.41;94.16;99380.09;4126715;85;21034;-81
2021/08/09 03:22:53;;;;;;;4.62;1.22;;;;;;;15.50;95.39;99377.08;4141405;84;21092;-84
2021/08/09 03:28:55;;;;;;;5.47;2.05;;;;;;;15.42;94.08;99385.79;4126320;85;21054;-81
2021/08/09 03:34:56;;;;;;;5.85;1.30;;;;;;;15.18;94.66;99397.03;4164991;83;20968;-82
2021/08/09 03:40:58;;;;;;;4.12;1.35;;;;;;;15.37;95.52;99396.61;4182456;82;29734;-81
2021/08/09 03:46:59;;;;;;;5.08;1.20;;;;;;;15.39;94.63;99405.89;4227882;82;21600;-81
2021/08/09 03:53:01;;;;;;;3.98;1.30;;;;;;;15.12;94.33;99402.75;4220266;82;20955;-81
2021/08/09 03:59:03;;;;;;;3.45;1.75;;;;;;;15.21;95.43;99401.75;4229712;81;22257;-83
2021/08/09 04:05:13;;;;;;;3.98;1.45;;;;;;;15.23;95.23;99420.08;4218829;81;21392;-83
2021/08/09 04:11:11;;;;;;;4.60;1.72;;;;;;;15.16;95.14;99417.30;4239966;82;21047;-82
2021/08/09 04:17:13;;;;;;;5.70;2.10;;;;;;;15.05;95.02;99415.14;4226215;82;21055;-81
2021/08/09 04:23:14;;;;;;;6.03;2.70;;;;;;;14.95;95.16;99405.50;4233834;82;21019;-81
2021/08/09 04:29:16;;;;;;;7.30;2.67;;;;;;;14.95;95.50;99415.95;4227673;81;21049;-81
2021/08/09 04:35:18;;;;;;;8.05;2.67;;;;;;;15.13;96.57;99422.23;4217078;82;21023;-81
2021/08/09 04:41:24;;;;;;;6.07;2.70;;;;;;;15.37;96.85;99431.67;4218072;82;21566;-81
2021/08/09 04:47:26;;;;;;;4.17;1.82;;;;;;;15.49;96.64;99432.66;4231258;81;21538;-81
2021/08/09 04:53:28;;;;;;;6.87;2.17;;;;;;;15.56;96.27;99429.33;4237840;82;21302;-81
2021/08/09 04:59:30;;;;;;;8.53;2.30;;;;;;;15.60;96.85;99432.05;4236925;82;21121;-81
2021/08/09 05:05:32;;;;;;;9.83;2.67;;;;;;;15.75;96.91;99431.44;4220264;82;21062;-81
2021/08/09 05:11:33;;;;;;;8.75;2.67;;;;;;;15.87;96.85;99429.03;4230126;81;20987;-81
2021/08/09 05:17:37;;;;;;;7.30;2.77;;;;;;;15.97;96.80;99434.33;4220575;81;21037;-82
2021/08/09 05:23:38;;;;;;;9.88;2.45;;;;;;;16.00;96.47;99436.28;4214357;82;21523;-82
2021/08/09 05:29:40;;;;;;;6.83;2.20;;;;;;;16.05;96.77;99440.02;4227940;82;21149;-81
2021/08/09 05:35:43;;;;;;;5.67;2.00;;;;;;;16.18;96.72;99445.27;4234251;81;20992;-82
2021/08/09 05:41:44;;;;;;;4.90;2.20;;;;;;;16.26;96.63;99435.19;4242424;82;21036;-82
2021/08/09 05:47:46;;;;;;;3.02;2.37;;;;;;;16.34;96.63;99435.34;4210991;82;21130;-82
2021/08/09 05:53:47;;;;;;;5.30;1.90;;;;;;;16.44;96.71;99435.92;4231166;82;21018;-82
2021/08/09 05:59:50;;;;;;;5.17;1.87;;;;;;;16.51;96.70;99439.22;4230767;82;22132;-81
2021/08/09 06:05:52;;;;;;;3.27;1.77;;;;;;;16.62;96.64;99433.83;4234493;82;21042;-81
2021/08/09 06:11:56;;;;;;;16.77;6.35;;;;;;;16.75;96.95;99428.03;4214891;82;21527;-81
2021/08/09 06:17:58;;;;;;;10.28;4.53;;;;;;;16.92;97.23;99425.73;4225092;82;21031;-82
2021/08/09 06:24:00;;;;;;;9.33;4.33;;;;;;;17.14;97.20;99422.98;4220501;82;21085;-82
2021/08/09 06:30:03;;;;;;;10.58;3.70;;;;;;;17.36;97.33;99418.05;4236270;82;21017;-81
2021/08/09 06:36:06;;;;;;;13.15;4.37;;;;;;;17.55;97.07;99422.23;4244000;82;21047;-81
2021/08/09 06:42:08;;;;;;;8.73;3.20;;;;;;;17.72;96.98;99419.88;4221111;82;21099;-81
2021/08/09 06:48:12;;;;;;;11.08;2.75;;;;;;;17.80;96.86;99431.06;4232897;82;20984;-80
2021/08/09 06:54:14;;;;;;;5.33;2.67;;;;;;;17.88;96.58;99431.18;4219331;82;21486;-82
2021/08/09 07:00:17;;;;;;;12.28;4.00;;;;;;;17.91;96.59;99440.05;4223072;82;21030;-80
2021/08/09 07:06:22;;;;;;;9.55;2.85;;;;;;;18.07;96.76;99438.25;4134506;83;21029;-81
2021/08/09 07:12:24;;;;;;;18.80;4.75;;;;;;;18.15;96.36;99444.52;4131411;84;21079;-81
2021/08/09 07:18:26;;;;;;;8.65;2.92;;;;;;;18.20;96.49;99450.38;4058329;85;21045;-81
2021/08/09 07:24:28;;;;;;;4.15;2.27;;;;;;;18.30;96.56;99450.06;4072897;85;21081;-81
2021/08/09 07:30:29;;;;;;;5.35;2.45;;;;;;;18.45;96.65;99455.62;4099776;84;21564;-81
2021/08/09 07:36:32;;;;;;;3.47;2.05;;;;;;;18.65;96.56;99453.16;4072069;84;21031;-83
2021/08/09 07:42:34;;;;;;;3.22;1.80;;;;;;;18.92;96.00;99449.63;4080156;84;21064;-81
2021/08/09 07:48:36;;;;;;;2.40;1.40;;;;;;;19.18;95.95;99451.58;4077669;85;21576;-84
2021/08/09 07:54:38;;;;;;;1.90;1.20;;;;;;;19.55;95.38;99448.59;4233638;82;21003;-81
2021/08/09 08:00:40;;;;;;;1.95;1.32;;;;;;;20.05;94.00;99448.62;4222906;82;21090;-81
2021/08/09 08:06:42;;;;;;;10.03;2.80;;;;;;;20.59;93.36;99453.30;4216534;82;21016;-82
2021/08/09 08:12:44;;;;;;;3.50;1.52;;;;;;;21.08;92.25;99456.97;4223984;82;21023;-81
2021/08/09 08:18:46;;;;;;;3.30;1.70;;;;;;;21.36;90.78;99455.64;4230998;81;21770;-81
2021/08/09 08:24:51;;;;;;;3.35;1.60;;;;;;;21.38;90.42;99460.78;4232872;81;21550;-81
2021/08/09 08:30:53;;;;;;;1.45;1.00;;;;;;;21.51;90.07;99460.25;4232317;82;21083;-84
2021/08/09 08:36:54;;;;;;;2.02;1.40;;;;;;;21.65;88.79;99443.96;4220432;82;21110;-82
2021/08/09 08:42:56;;;;;;;2.92;1.20;;;;;;;21.65;87.57;99446.75;4232527;81;21443;-81
2021/08/09 08:48:59;;;;;;;3.98;1.50;;;;;;;21.73;86.23;99445.94;4219347;81;21015;-81
2021/08/09 08:55:02;;;;;;;2.50;1.62;;;;;;;21.85;86.21;99441.69;4218668;82;21607;-82
2021/08/09 09:01:03;;;;;;;2.30;1.27;;;;;;;21.98;85.19;99446.69;4229601;82;21046;-81
2021/08/09 09:07:08;;;;;;;2.85;1.27;;;;;;;21.86;83.70;99454.39;4236693;81;21019;-81
2021/08/09 09:13:17;;;;;;;2.62;1.37;;;;;;;21.55;83.52;99453.37;4204235;82;27875;-81
2021/08/09 09:19:43;;;;;;;1.32;1.10;;;;;;;21.82;82.87;99453.69;4185356;83;21511;-81
2021/08/09 09:25:47;;;;;;;1.10;0.93;;;;;;;22.27;82.47;99465.59;4177180;84;21037;-82
2021/08/09 09:31:50;;;;;;;2.50;1.12;;;;;;;22.85;80.49;99454.47;4181102;84;21023;-83
2021/08/09 09:37:52;;;;;;;1.22;0.90;;;;;;;23.48;80.39;99452.44;4184869;83;21046;-85
2021/08/09 09:43:53;;;;;;;2.10;1.00;;;;;;;24.30;79.46;99452.55;4176441;84;21007;-82
2021/08/09 09:49:59;;;;;;;2.52;0.88;;;;;;;25.16;77.96;99443.20;4183906;83;21585;-82
2021/08/09 09:56:02;;;;;;;1.10;0.80;;;;;;;25.97;77.06;99449.73;4178464;83;21885;-82
2021/08/09 10:02:03;;;;;;;2.05;1.20;;;;;;;26.13;74.10;99445.86;4177521;84;21038;-83
2021/08/09 10:08:16;;;;;;;3.20;1.17;;;;;;;26.88;71.89;99450.39;4177733;84;21649;-82
2021/08/09 10:14:17;;;;;;;2.80;1.10;;;;;;;27.44;71.65;99450.45;4174182;84;21598;-83
2021/08/09 10:20:21;;;;;;;2.33;0.80;;;;;;;28.13;68.76;99448.70;4184935;83;21991;-83
2021/08/09 10:26:34;;;;;;;1.92;0.90;;;;;;;28.39;67.63;99448.31;4181592;83;21050;-83
2021/08/09 10:32:45;;;;;;;1.77;0.80;;;;;;;28.25;65.20;99449.08;4168560;83;21578;-84
2021/08/09 10:39:00;;;;;;;4.62;1.40;;;;;;;27.74;63.19;99444.31;4189477;83;21437;-82
2021/08/09 10:45:11;;;;;;;0.90;0.88;;;;;;;27.77;63.77;99446.81;4190083;83;21034;-82
2021/08/09 10:51:12;;;;;;;3.58;0.78;;;;;;;27.53;60.68;99455.25;4178002;84;21083;-83
2021/08/09 10:57:19;;;;;;;5.42;0.80;;;;;;;27.88;60.55;99456.91;4178657;83;21054;-84
2021/08/09 11:03:20;;;;;;;1.52;0.90;;;;;;;28.11;60.40;99469.52;4193144;83;21085;-83
2021/08/09 11:09:37;;;;;;;1.25;0.50;;;;;;;27.90;58.39;99462.20;4188276;83;21038;-83
2021/08/09 11:15:57;;;;;;;0.75;0.60;;;;;;;28.29;57.58;99467.95;4176101;84;21113;-83
2021/08/09 11:22:00;;;;;;;1.00;0.60;;;;;;;28.71;57.05;99462.86;4187227;83;21062;-83
2021/08/09 11:28:11;;;;;;;2.83;0.80;;;;;;;29.09;54.86;99459.14;4180560;84;21415;-82
2021/08/09 11:34:13;;;;;;;2.10;0.70;;;;;;;29.05;53.62;99464.94;4180729;83;21062;-83
2021/08/09 11:40:26;;;;;;;3.05;0.85;;;;;;;28.77;51.72;99465.13;4192104;83;21070;-83
2021/08/09 11:46:27;;;;;;;1.85;1.12;;;;;;;28.11;53.27;99457.50;4182049;84;21579;-83
2021/08/09 11:52:29;;;;;;;1.10;0.70;;;;;;;27.65;53.23;99466.88;4176362;83;21067;-83
2021/08/09 11:58:31;;;;;;;1.87;1.00;;;;;;;26.93;53.72;99460.20;4178084;83;21444;-83
2021/08/09 12:04:44;;;;;;;1.75;1.00;;;;;;;26.50;53.35;99453.61;4185064;83;21074;-83
2021/08/09 12:10:46;;;;;;;4.90;0.95;;;;;;;26.18;52.77;99447.41;4188186;83;22151;-84
2021/08/09 12:16:53;;;;;;;2.40;0.90;;;;;;;25.71;53.70;99442.09;4182578;83;21044;-82
2021/08/09 12:22:55;;;;;;;3.40;1.00;;;;;;;25.54;53.95;99438.03;4182092;83;21007;-82
2021/08/09 12:29:01;;;;;;;1.62;0.95;;;;;;;25.30;54.25;99439.20;4185715;83;21456;-85
2021/08/09 12:35:05;;;;;;;2.35;0.70;;;;;;;25.22;54.32;99437.14;4188918;83;21015;-82
2021/08/09 12:41:08;;;;;;;1.50;1.00;;;;;;;25.22;54.88;99436.53;4183451;83;21065;-81
2021/08/09 12:47:09;;;;;;;2.50;1.10;;;;;;;25.28;54.77;99432.48;4170855;84;21049;-82
2021/08/09 12:53:12;;;;;;;2.12;1.20;;;;;;;25.18;55.19;99438.70;4177581;83;21120;-82
2021/08/09 12:59:13;;;;;;;1.77;0.98;;;;;;;25.02;55.09;99432.57;4182619;84;21045;-82
2021/08/09 13:05:16;;;;;;;2.47;0.90;;;;;;;25.01;55.83;99428.98;4171106;84;21041;-81
2021/08/09 13:11:17;;;;;;;1.62;1.02;;;;;;;24.96;56.03;99425.41;4182731;83;21030;-81
2021/08/09 13:17:19;;;;;;;2.02;1.00;;;;;;;24.96;55.73;99421.20;4175886;84;21540;-83
2021/08/09 13:23:21;;;;;;;1.67;1.00;;;;;;;24.77;56.46;99388.77;4186446;83;21460;-84
2021/08/09 13:29:22;;;;;;;2.20;1.42;;;;;;;24.78;56.71;99419.72;4183399;83;21042;-83
2021/08/09 13:35:23;;;;;;;4.87;1.40;;;;;;;24.68;56.48;99409.09;4175930;84;21081;-86
2021/08/09 13:41:25;;;;;;;1.15;0.93;;;;;;;24.52;56.58;99381.95;4181406;83;21027;-83
2021/08/09 13:47:29;;;;;;;1.85;1.30;;;;;;;24.66;56.59;99412.21;4062778;83;10000558;-83
2021/08/09 13:53:31;;;;;;;2.30;1.30;;;;;;;24.56;56.34;99402.95;4181587;83;21010;-84
2021/08/09 13:59:32;;;;;;;1.00;0.90;;;;;;;24.55;56.92;99401.41;4169374;83;21512;-83
2021/08/09 14:05:33;;;;;;;3.87;1.00;;;;;;;24.53;56.82;99403.88;4178995;83;21502;-83
2021/08/09 14:11:35;;;;;;;1.98;1.25;;;;;;;24.49;57.03;99400.42;4183451;83;21110;-83
2021/08/09 14:17:36;;;;;;;2.15;1.12;;;;;;;24.39;56.95;99399.44;4186998;83;21550;-83
2021/08/09 14:23:38;;;;;;;1.95;0.80;;;;;;;24.35;57.59;99394.61;4177019;83;48833;-83
2021/08/09 14:29:39;;;;;;;1.22;1.02;;;;;;;24.32;57.70;99399.09;4087063;84;21099;-82
2021/08/09 14:35:42;;;;;;;2.08;1.37;;;;;;;24.22;58.03;99388.30;4074775;85;21081;-85
2021/08/09 14:41:46;;;;;;;3.83;1.15;;;;;;;24.19;58.24;99394.20;4084596;84;21133;-84
2021/08/09 14:47:47;;;;;;;2.22;1.12;;;;;;;24.15;58.21;99387.19;3981130;84;10000005;-83
2021/08/09 14:53:50;;;;;;;1.47;1.10;;;;;;;24.13;58.58;99384.06;4116680;84;21609;-83
2021/08/09 14:59:52;;;;;;;3.02;1.10;;;;;;;24.08;58.67;99377.05;4091890;84;22089;-83
2021/08/09 15:05:55;;;;;;;2.80;1.30;;;;;;;24.06;58.59;99376.71;4094511;85;21007;-84
2021/08/09 15:11:57;;;;;;;2.30;1.07;;;;;;;24.04;58.71;99373.58;4115457;84;21006;-83
2021/08/09 15:18:02;;;;;;;4.45;1.32;;;;;;;23.98;58.44;99374.02;4087364;85;21036;-83
2021/08/09 15:24:04;;;;;;;4.08;1.50;;;;;;;23.96;59.04;99370.09;4110155;84;21060;-83
2021/08/09 15:30:06;;;;;;;1.37;1.15;;;;;;;23.90;58.97;99369.89;4030631;86;21107;-85
2021/08/09 15:36:07;;;;;;;3.92;1.07;;;;;;;23.89;58.62;99368.34;4016425;86;21069;-84
2021/08/09 15:42:09;;;;;;;1.07;0.98;;;;;;;23.89;58.43;99368.94;4005604;86;21190;-83
2021/08/09 15:48:14;;;;;;;4.72;1.40;;;;;;;23.86;58.73;99362.87;4050683;85;21062;-83
2021/08/09 15:54:15;;;;;;;4.08;1.17;;;;;;;23.84;59.06;99362.53;4049628;85;21094;-83
2021/08/09 16:00:16;;;;;;;2.55;1.42;;;;;;;23.75;59.63;99354.88;3994485;87;21106;-83
2021/08/09 16:06:17;;;;;;;1.30;1.20;;;;;;;23.69;59.77;99351.72;4099041;84;21040;-83
2021/08/09 16:12:18;;;;;;;1.98;1.30;;;;;;;23.64;60.11;99346.70;4113472;84;21103;-83
2021/08/09 16:18:20;;;;;;;2.85;1.45;;;;;;;23.52;60.26;99346.94;4120362;84;21046;-83
2021/08/09 16:24:22;;;;;;;5.45;1.52;;;;;;;23.47;60.32;99346.72;4034900;86;21207;-83
2021/08/09 16:30:24;;;;;;;2.52;1.10;;;;;;;23.41;60.07;99349.33;4115810;84;21175;-83
2021/08/09 16:36:25;;;;;;;2.55;1.20;;;;;;;23.37;60.02;99345.07;4115780;84;21083;-83
2021/08/09 16:42:27;;;;;;;3.55;1.57;;;;;;;23.29;60.18;99350.13;4094492;84;21562;-83
2021/08/09 16:48:28;;;;;;;1.95;1.07;;;;;;;23.18;60.42;99350.47;4112511;84;21020;-84
2021/08/09 16:54:29;;;;;;;2.52;1.52;;;;;;;23.06;60.77;99351.30;4099800;84;21522;-83
2021/08/09 17:00:32;;;;;;;1.92;1.30;;;;;;;22.99;60.94;99352.91;4102789;85;21078;-83
2021/08/09 17:06:33;;;;;;;2.12;1.17;;;;;;;22.97;61.30;99360.19;4127107;84;21089;-83
2021/08/09 17:12:35;;;;;;;1.60;1.15;;;;;;;22.91;61.44;99357.80;4092882;84;20999;-83
2021/08/09 17:18:36;;;;;;;2.37;1.30;;;;;;;22.85;61.50;99359.57;4098363;84;21131;-82
2021/08/09 17:24:37;;;;;;;1.70;1.27;;;;;;;22.74;61.66;99346.61;4090139;84;21030;-83
2021/08/09 17:30:39;;;;;;;4.45;1.50;;;;;;;22.63;61.78;99342.74;4113236;84;21016;-83
2021/08/09 17:36:41;;;;;;;2.62;1.35;;;;;;;22.54;62.15;99339.05;4076056;84;21073;-83
2021/08/09 17:42:42;;;;;;;2.72;1.65;;;;;;;22.42;62.54;99337.82;4120906;84;21033;-82
2021/08/09 17:48:43;;;;;;;1.90;1.27;;;;;;;22.26;63.23;99345.48;4100435;84;21031;-83
2021/08/09 17:54:45;;;;;;;5.05;2.00;;;;;;;22.01;63.59;99340.66;4115167;84;21031;-83
2021/08/09 18:00:49;;;;;;;7.30;3.02;;;;;;;21.85;64.69;99346.94;4114599;84;21080;-83
2021/08/09 18:06:50;;;;;;;7.75;3.62;;;;;;;21.69;65.58;99341.55;4109668;84;21985;-81
2021/08/09 18:12:52;;;;;;;3.90;2.62;;;;;;;21.55;66.24;99341.95;3961648;85;10000233;-83
2021/08/09 18:18:53;;;;;;;6.62;3.25;;;;;;;21.37;66.99;99347.83;4074230;85;20971;-83
2021/08/09 18:24:54;;;;;;;10.05;4.83;;;;;;;21.11;67.80;99348.30;4080309;85;20988;-82
2021/08/09 18:30:56;;;;;;;9.58;4.28;;;;;;;20.94;68.64;99350.14;4091142;84;21009;-82
2021/08/09 18:37:02;;;;;;;10.98;7.30;;;;;;;20.69;69.39;99354.13;4091695;85;21700;-84
2021/08/09 18:43:03;;;;;;;12.88;8.85;;;;;;;20.50;70.16;99364.71;4110662;85;21058;-83
2021/08/09 18:49:05;;;;;;;16.15;8.45;;;;;;;20.39;71.06;99368.34;4078767;85;20988;-83
2021/08/09 18:55:07;;;;;;;12.00;7.67;;;;;;;20.24;71.71;99377.59;4077486;84;21462;-83
2021/08/09 19:01:09;;;;;;;14.07;7.92;;;;;;;20.08;72.30;99378.89;4085541;84;21094;-82
2021/08/09 19:07:10;;;;;;;12.47;6.58;;;;;;;19.94;73.03;99396.65;4089447;84;21086;-83
2021/08/09 19:13:12;;;;;;;16.42;9.13;;;;;;;19.81;73.54;99395.70;4097137;85;21393;-82
2021/08/09 19:19:14;;;;;;;16.12;8.48;;;;;;;19.69;73.96;99396.35;4093729;85;20978;-83
2021/08/09 19:25:16;;;;;;;16.65;9.68;;;;;;;19.56;74.38;99402.97;4102376;84;21110;-82
2021/08/09 19:31:18;;;;;;;18.27;8.45;;;;;;;19.42;74.45;99399.83;4086541;85;21044;-82
2021/08/09 19:37:19;;;;;;;15.40;8.35;;;;;;;19.21;75.21;99389.09;4107836;85;21083;-82
2021/08/09 19:43:20;;;;;;;17.25;7.45;;;;;;;19.10;76.07;99391.85;4095778;84;21554;-82
2021/08/09 19:49:22;;;;;;;11.97;6.33;;;;;;;19.10;76.58;99394.62;4105436;84;21003;-82
2021/08/09 19:55:24;;;;;;;9.98;5.03;;;;;;;18.99;77.38;99392.03;4085514;85;20984;-83
2021/08/09 20:01:26;;;;;;;15.20;5.85;;;;;;;18.85;77.79;99391.47;4077938;85;20992;-83
2021/08/09 20:07:27;;;;;;;15.20;5.40;;;;;;;18.73;77.97;99381.73;4089907;84;21065;-82
2021/08/09 20:13:28;;;;;;;13.18;5.03;;;;;;;18.63;78.54;99380.72;3970078;85;9999905;-82
2021/08/09 20:19:30;;;;;;;10.95;5.78;;;;;;;18.50;79.14;99384.47;4092153;85;21084;-82
2021/08/09 20:25:32;;;;;;;7.47;5.05;;;;;;;18.56;79.56;99387.75;4095402;84;21061;-82
2021/08/09 20:31:33;;;;;;;8.73;5.17;;;;;;;18.52;79.52;99388.41;4096251;84;21542;-83
2021/08/09 20:37:34;;;;;;;8.08;4.72;;;;;;;18.39;79.75;99392.16;4078593;85;21021;-84
2021/08/09 20:43:38;;;;;;;8.83;5.15;;;;;;;18.13;80.05;99391.50;4084067;85;21060;-82
2021/08/09 20:49:39;;;;;;;9.65;5.78;;;;;;;18.01;80.51;99385.13;4084164;85;21005;-83
2021/08/09 20:55:40;;;;;;;13.60;5.00;;;;;;;17.96;81.21;99385.59;4092166;85;21073;-82
2021/08/09 21:01:41;;;;;;;10.63;4.72;;;;;;;17.90;81.45;99396.32;4083772;84;21091;-82
2021/08/09 21:07:43;;;;;;;11.73;5.45;;;;;;;17.74;82.01;99400.29;4087231;85;21081;-82
2021/08/09 21:13:45;;;;;;;13.00;5.85;;;;;;;17.73;82.53;99404.86;4097181;84;21501;-82
2021/08/09 21:19:46;;;;;;;11.90;6.10;;;;;;;17.64;82.58;99403.16;4096099;84;21061;-82
2021/08/09 21:25:47;;;;;;;9.58;5.58;;;;;;;17.63;83.11;99399.62;4095658;85;21543;-82
2021/08/09 21:31:48;;;;;;;9.33;6.17;;;;;;;17.49;83.42;99392.05;4106539;85;21012;-85
2021/08/09 21:37:50;;;;;;;9.53;6.42;;;;;;;17.47;83.85;99399.39;4127683;84;21066;-82
2021/08/09 21:43:51;;;;;;;12.35;6.00;;;;;;;17.48;84.22;99391.87;4123725;84;21024;-82
2021/08/09 21:49:52;;;;;;;14.78;6.28;;;;;;;17.44;84.50;99383.60;4111878;84;21565;-82
2021/08/09 21:55:57;;;;;;;11.53;5.75;;;;;;;17.39;84.86;99383.22;4095147;84;21792;-82
2021/08/09 22:01:58;;;;;;;10.23;5.85;;;;;;;17.33;85.17;99377.36;4121882;84;21050;-82
2021/08/09 22:08:00;;;;;;;11.28;6.70;;;;;;;17.32;85.92;99380.54;4104505;84;21038;-82
2021/08/09 22:14:01;;;;;;;12.47;6.55;;;;;;;17.33;85.88;99375.97;4116583;84;21021;-82
2021/08/09 22:20:05;;;;;;;9.43;5.78;;;;;;;17.32;86.07;99363.31;4101733;85;21098;-82
2021/08/09 22:26:07;;;;;;;8.25;5.37;;;;;;;17.28;86.40;99368.70;4129675;84;21092;-82
2021/08/09 22:32:08;;;;;;;8.65;5.10;;;;;;;17.24;86.69;99368.77;4104036;84;21032;-81
2021/08/09 22:38:10;;;;;;;9.93;5.75;;;;;;;17.28;86.72;99377.80;4103506;84;21040;-82
2021/08/09 22:44:11;;;;;;;9.35;4.60;;;;;;;17.32;87.08;99375.00;4127240;84;21080;-82
2021/08/09 22:50:13;;;;;;;10.08;4.70;;;;;;;17.24;87.41;99377.06;4107847;84;22182;-84
2021/08/09 22:56:14;;;;;;;10.95;4.75;;;;;;;17.17;87.48;99372.96;4096909;85;21125;-82
2021/08/09 23:02:15;;;;;;;9.20;5.50;;;;;;;17.20;87.82;99379.85;4094683;85;21045;-83
2021/08/09 23:08:16;;;;;;;6.25;4.67;;;;;;;17.14;87.53;99375.96;4118888;84;21047;-82
2021/08/09 23:14:18;;;;;;;7.45;5.00;;;;;;;17.01;87.63;99370.73;4086238;85;21554;-81
2021/08/09 23:20:19;;;;;;;12.13;5.75;;;;;;;16.92;87.87;99374.58;4083831;85;21073;-82
2021/08/09 23:26:21;;;;;;;12.18;5.67;;;;;;;16.87;87.92;99373.63;4085504;84;21079;-82
2021/08/09 23:32:22;;;;;;;8.18;5.78;;;;;;;16.77;88.29;99380.01;4088193;85;21501;-82
2021/08/09 23:38:24;;;;;;;11.73;5.85;;;;;;;16.69;88.37;99394.30;4089507;85;21093;-82
2021/08/09 23:44:25;;;;;;;8.88;5.72;;;;;;;16.58;88.43;99385.30;4094639;84;22138;-82
2021/08/09 23:50:26;;;;;;;8.40;5.10;;;;;;;16.52;89.17;99391.84;4093296;85;21015;-82
2021/08/09 23:56:28;;;;;;;16.82;5.58;;;;;;;16.66;89.49;99413.09;4105619;84;21043;-82
